createdAt,value
2022-12-08T00:00:37.385Z,98109.09
2022-12-08T00:05:58.247Z,98108.73
2022-12-08T00:11:00.042Z,98107.12
2022-12-08T00:16:02.204Z,98110.27
2022-12-08T00:21:04.372Z,98111.08
2022-12-08T00:26:07.142Z,98114.98
2022-12-08T00:31:11.717Z,98116.87
2022-12-08T00:36:15.047Z,98120.86
2022-12-08T00:41:39.922Z,98119.38
2022-12-08T00:46:42.003Z,98125.20
2022-12-08T00:51:44.944Z,98131.48
2022-12-08T00:56:46.741Z,98137.30
2022-12-08T01:01:49.025Z,98143.13
2022-12-08T01:06:50.957Z,98145.08
2022-12-08T01:11:52.762Z,98150.19
2022-12-08T01:16:54.638Z,98153.61
2022-12-08T01:21:56.461Z,98157.98
2022-12-08T01:26:58.248Z,98154.52
2022-12-08T01:32:00.069Z,98156.55
2022-12-08T01:37:01.813Z,98156.86
2022-12-08T01:42:03.658Z,98158.20
2022-12-08T01:47:05.702Z,98152.16
2022-12-08T01:52:13.592Z,98150.85
2022-12-08T01:57:24.356Z,98151.17
2022-12-08T02:02:31.487Z,98151.35
2022-12-08T02:07:34.594Z,98144.41
2022-12-08T02:12:36.363Z,98146.34
2022-12-08T02:17:38.045Z,98141.52
2022-12-08T02:23:03.515Z,98141.14
2022-12-08T02:28:11.348Z,98129.40
2022-12-08T02:33:37.932Z,98132.00
2022-12-08T02:39:01.088Z,98133.27
2022-12-08T02:44:29.046Z,98129.32
2022-12-08T02:49:35.367Z,98130.48
2022-12-08T02:54:41.970Z,98129.29
2022-12-08T03:00:01.571Z,98136.28
2022-12-08T03:05:16.136Z,98142.97
2022-12-08T03:10:24.657Z,98142.34
2022-12-08T03:15:27.689Z,98140.87
2022-12-08T03:20:31.243Z,98144.73
2022-12-08T03:25:37.930Z,98136.35
2022-12-08T03:30:43.150Z,98136.33
2022-12-08T03:35:46.212Z,98141.95
2022-12-08T03:41:10.536Z,98132.77
2022-12-08T03:46:12.220Z,98124.33
2022-12-08T03:51:14.712Z,98122.80
2022-12-08T03:56:35.508Z,98125.34
2022-12-08T04:01:37.437Z,98130.27
2022-12-08T04:06:39.239Z,98130.25
2022-12-08T04:11:40.918Z,98127.23
2022-12-08T04:16:42.757Z,98127.63
2022-12-08T04:21:44.453Z,98122.29
2022-12-08T04:26:46.418Z,98118.19
2022-12-08T04:31:48.189Z,98116.91
2022-12-08T04:36:50.109Z,98115.73
2022-12-08T04:41:51.863Z,98113.48
2022-12-08T04:46:53.694Z,98111.78
2022-12-08T04:51:55.455Z,98113.20
2022-12-08T04:56:57.266Z,98110.35
2022-12-08T05:01:59.153Z,98114.58
2022-12-08T05:07:01.097Z,98114.40
2022-12-08T05:12:02.851Z,98107.49
2022-12-08T05:17:09.331Z,98108.98
2022-12-08T05:22:11.659Z,98106.52
2022-12-08T05:27:13.499Z,98101.59
2022-12-08T05:32:15.303Z,98101.08
2022-12-08T05:37:17.235Z,98105.20
2022-12-08T05:42:24.373Z,98103.67
2022-12-08T05:47:28.112Z,98096.23
2022-12-08T05:52:32.385Z,98105.50
2022-12-08T05:57:34.075Z,98102.47
2022-12-08T06:02:36.002Z,98094.61
2022-12-08T06:07:38.100Z,98102.87
2022-12-08T06:12:40.509Z,98112.22
2022-12-08T06:17:42.269Z,98117.40
2022-12-08T06:22:43.983Z,98124.98
2022-12-08T06:27:45.738Z,98129.00
2022-12-08T06:32:47.546Z,98128.80
2022-12-08T06:37:51.569Z,98139.52
2022-12-08T06:42:53.295Z,98142.56
2022-12-08T06:47:54.967Z,98148.40
2022-12-08T06:53:04.901Z,98144.28
2022-12-08T06:58:07.209Z,98153.52
2022-12-08T07:03:10.542Z,98158.81
2022-12-08T07:08:12.483Z,98164.89
2022-12-08T07:13:14.330Z,98161.42
2022-12-08T07:18:16.068Z,98165.48
2022-12-08T07:23:17.796Z,98156.78
2022-12-08T07:28:19.464Z,98152.20
2022-12-08T07:33:21.152Z,98153.30
2022-12-08T07:38:23.291Z,98156.02
2022-12-08T07:43:25.084Z,98153.33
2022-12-08T07:48:26.714Z,98153.35
2022-12-08T07:53:28.554Z,98151.95
2022-12-08T07:58:30.218Z,98153.67
2022-12-08T08:03:32.073Z,98155.35
2022-12-08T08:08:33.905Z,98152.70
2022-12-08T08:13:35.975Z,98151.25
2022-12-08T08:18:37.839Z,98151.84
2022-12-08T08:23:39.540Z,98149.63
2022-12-08T08:28:41.701Z,98145.56
2022-12-08T08:33:43.449Z,98145.09
2022-12-08T08:38:45.152Z,98145.33
2022-12-08T08:43:46.925Z,98144.48
2022-12-08T08:48:48.824Z,98145.92
2022-12-08T08:53:50.784Z,98146.22
2022-12-08T08:58:53.750Z,98149.96
2022-12-08T09:03:56.516Z,98147.14
2022-12-08T09:08:58.419Z,98143.01
2022-12-08T09:14:00.176Z,98146.87
2022-12-08T09:19:02.369Z,98139.03
2022-12-08T09:24:04.166Z,98134.24
2022-12-08T09:29:05.864Z,98125.13
2022-12-08T09:34:07.563Z,98118.33
2022-12-08T09:39:09.280Z,98112.04
2022-12-08T09:44:29.322Z,98109.00
2022-12-08T09:49:39.616Z,98103.41
2022-12-08T09:54:41.251Z,98101.27
2022-12-08T09:59:47.919Z,98097.83
2022-12-08T10:04:50.221Z,98097.83
2022-12-08T10:10:37.557Z,98098.04
2022-12-08T10:16:29.792Z,98095.55
2022-12-08T10:21:32.628Z,98095.02
2022-12-08T10:26:34.492Z,98093.27
2022-12-08T10:31:36.376Z,98089.51
2022-12-08T10:36:49.583Z,98090.18
2022-12-08T10:41:51.667Z,98084.20
2022-12-08T10:46:53.522Z,98081.92
2022-12-08T10:51:55.342Z,98080.91
2022-12-08T10:56:57.486Z,98082.48
2022-12-08T11:02:00.350Z,98076.30
2022-12-08T11:07:06.119Z,98073.83
2022-12-08T11:12:13.362Z,98071.66
2022-12-08T11:17:23.514Z,98075.55
2022-12-08T11:22:25.153Z,98070.03
2022-12-08T11:27:27.345Z,98061.52
2022-12-08T11:32:29.262Z,98059.73
2022-12-08T11:37:41.785Z,98058.45
2022-12-08T11:42:52.231Z,98060.65
2022-12-08T11:48:01.893Z,98056.55
2022-12-08T11:53:06.370Z,98055.98
2022-12-08T11:58:26.923Z,98050.67
2022-12-08T12:04:07.459Z,98054.63
2022-12-08T12:09:22.725Z,98057.89
2022-12-08T12:14:33.772Z,98058.89
2022-12-08T12:19:39.826Z,98050.80
2022-12-08T12:24:44.471Z,98054.26
2022-12-08T12:29:56.716Z,98050.01
2022-12-08T12:35:00.950Z,98053.45
2022-12-08T12:40:17.424Z,98049.23
2022-12-08T12:45:21.728Z,98046.94
2022-12-08T12:50:33.097Z,98046.20
2022-12-08T12:55:59.529Z,98043.12
2022-12-08T13:01:10.129Z,98041.04
2022-12-08T13:06:14.857Z,98034.51
2022-12-08T13:11:18.404Z,98038.48
2022-12-08T13:16:24.181Z,98036.50
2022-12-08T13:21:33.367Z,98036.73
2022-12-08T13:26:44.468Z,98035.38
2022-12-08T13:31:51.931Z,98034.66
2022-12-08T13:37:12.170Z,98029.30
2022-12-08T13:42:24.990Z,98036.92
2022-12-08T13:47:35.093Z,98038.92
2022-12-08T13:58:02.799Z,98039.25
2022-12-08T14:03:04.711Z,98041.15
2022-12-08T14:08:36.365Z,98038.45
2022-12-08T14:13:40.648Z,98038.21
2022-12-08T14:18:42.381Z,98039.36
2022-12-08T14:23:44.598Z,98039.59
2022-12-08T14:28:46.481Z,98038.36
2022-12-08T14:33:51.886Z,98039.10
2022-12-08T14:38:58.213Z,98036.70
2022-12-08T14:44:01.910Z,98043.27
2022-12-08T14:49:04.239Z,98044.56
2022-12-08T14:54:13.184Z,98047.52
2022-12-08T14:59:27.097Z,98046.31
2022-12-08T15:04:28.972Z,98039.85
2022-12-08T15:09:44.420Z,98039.80
2022-12-08T15:14:55.498Z,98037.34
2022-12-08T15:19:58.997Z,98039.19
2022-12-08T15:25:00.780Z,98034.94
2022-12-08T15:30:02.563Z,98025.41
2022-12-08T15:35:04.915Z,98025.39
2022-12-08T15:40:11.078Z,98024.41
2022-12-08T15:45:17.055Z,98014.09
2022-12-08T15:50:21.475Z,98009.05
2022-12-08T15:55:23.283Z,98005.21
2022-12-08T16:00:51.847Z,97998.77
2022-12-08T16:06:16.476Z,97996.36
2022-12-08T16:12:04.094Z,97996.95
2022-12-08T16:16:52.249Z,97991.95
2022-12-08T16:32:50.287Z,97992.84
2022-12-08T16:37:52.075Z,97992.89
2022-12-08T16:42:53.997Z,97991.11
2022-12-08T16:48:00.928Z,97991.31
2022-12-08T16:53:06.147Z,97990.74
2022-12-08T16:58:07.920Z,97990.16
2022-12-08T17:03:13.487Z,97990.69
2022-12-08T17:08:15.365Z,97990.75
2022-12-08T17:13:17.671Z,97988.49
2022-12-08T17:18:19.321Z,97984.56
2022-12-08T17:23:21.051Z,97990.16
2022-12-08T17:28:51.593Z,97986.92
2022-12-08T17:33:45.917Z,97987.23
2022-12-08T17:38:47.753Z,97991.34
2022-12-08T17:43:49.430Z,97993.11
2022-12-08T17:48:51.286Z,97999.10
2022-12-08T17:53:53.045Z,97995.98
2022-12-08T17:58:55.112Z,97991.63
2022-12-08T18:03:58.170Z,97985.38
2022-12-08T18:09:00.854Z,97989.78
2022-12-08T18:14:09.869Z,97991.43
2022-12-08T18:19:13.038Z,97987.48
2022-12-08T18:24:22.078Z,97985.33
2022-12-08T18:29:24.606Z,97984.04
2022-12-08T18:34:26.343Z,97986.35
2022-12-08T18:39:32.803Z,97982.10
2022-12-08T18:44:34.484Z,97977.16
2022-12-08T18:49:36.269Z,97971.67
2022-12-08T18:55:08.650Z,97970.93
2022-12-08T19:00:02.676Z,97973.24
2022-12-08T19:05:06.193Z,97975.19
2022-12-08T19:10:08.760Z,97974.27
2022-12-08T19:15:11.090Z,97970.36
2022-12-08T19:20:13.301Z,97977.30
2022-12-08T19:25:15.038Z,97979.11
2022-12-08T19:30:17.200Z,97978.05
2022-12-08T19:35:19.044Z,97978.47
2022-12-08T19:40:39.631Z,97984.08
2022-12-08T19:45:41.408Z,97984.37
2022-12-08T19:50:43.389Z,97978.76
2022-12-08T19:55:45.200Z,97972.19
2022-12-08T20:00:48.621Z,97961.50
2022-12-08T20:05:53.085Z,97961.71
2022-12-08T20:10:56.171Z,97963.80
2022-12-08T20:15:58.573Z,97963.62
2022-12-08T20:21:01.472Z,97961.15
2022-12-08T20:26:08.804Z,97957.80
2022-12-08T20:31:25.258Z,97955.40
2022-12-08T20:36:27.561Z,97956.42
2022-12-08T20:41:29.229Z,97964.38
2022-12-08T20:46:31.184Z,97962.19
2022-12-08T20:51:34.201Z,97961.60
2022-12-08T20:56:36.560Z,97967.60
2022-12-08T21:01:38.457Z,97967.40
2022-12-08T21:06:40.318Z,97965.79
2022-12-08T21:11:42.174Z,97959.59
2022-12-08T21:16:44.104Z,97955.10
2022-12-08T21:21:46.115Z,97953.77
2022-12-08T21:26:48.161Z,97952.59
2022-12-08T21:31:50.279Z,97950.55
2022-12-08T21:36:53.204Z,97953.55
2022-12-08T21:42:14.045Z,97955.06
2022-12-08T21:47:16.001Z,97953.09
2022-12-08T21:52:17.892Z,97948.36
2022-12-08T21:57:20.365Z,97942.83
2022-12-08T22:02:22.886Z,97937.40
2022-12-08T22:07:25.070Z,97932.45
2022-12-08T22:12:28.551Z,97928.55
2022-12-08T22:17:30.349Z,97932.91
2022-12-08T22:22:34.866Z,97930.13
2022-12-08T22:27:37.006Z,97926.91
2022-12-08T22:32:39.311Z,97933.51
2022-12-08T22:37:41.111Z,97938.05
2022-12-08T22:42:43.528Z,97938.15
2022-12-08T22:47:45.352Z,97936.47
2022-12-08T22:52:47.120Z,97931.61
2022-12-08T22:57:48.890Z,97928.98
2022-12-08T23:02:50.779Z,97938.95
2022-12-08T23:07:52.582Z,97941.56
2022-12-08T23:12:56.822Z,97932.32
2022-12-08T23:18:01.360Z,97925.73
2022-12-08T23:23:03.331Z,97916.80
2022-12-08T23:28:05.415Z,97912.79
2022-12-08T23:33:07.253Z,97912.70
2022-12-08T23:38:09.118Z,97906.15
2022-12-08T23:43:10.790Z,97907.36
2022-12-08T23:48:12.450Z,97908.27
2022-12-08T23:53:14.338Z,97911.80
2022-12-08T23:58:16.197Z,97909.18
